sensor_id;sensor_type;location;lat;lon;timestamp;P1;durP1;ratioP1;P2;durP2;ratioP2
5391;SDS011;2719;53.624;9.786;2023-08-12T00:00:59;3.70;;;2.07;;
5391;SDS011;2719;53.624;9.786;2023-08-12T00:03:26;4.67;;;1.40;;
5391;SDS011;2719;53.624;9.786;2023-08-12T00:05:53;2.23;;;1.67;;
5391;SDS011;2719;53.624;9.786;2023-08-12T00:08:21;2.00;;;1.50;;
5391;SDS011;2719;53.624;9.786;2023-08-12T00:10:48;3.80;;;2.03;;
5391;SDS011;2719;53.624;9.786;2023-08-12T00:13:15;4.83;;;1.73;;
5391;SDS011;2719;53.624;9.786;2023-08-12T00:15:43;3.73;;;1.27;;
5391;SDS011;2719;53.624;9.786;2023-08-12T00:18:10;2.90;;;1.87;;
5391;SDS011;2719;53.624;9.786;2023-08-12T00:20:37;3.17;;;1.50;;
5391;SDS011;2719;53.624;9.786;2023-08-12T00:23:04;10.10;;;1.67;;
5391;SDS011;2719;53.624;9.786;2023-08-12T00:25:31;5.50;;;1.57;;
5391;SDS011;2719;53.624;9.786;2023-08-12T00:27:57;5.00;;;2.03;;
5391;SDS011;2719;53.624;9.786;2023-08-12T00:30:24;3.20;;;1.47;;
5391;SDS011;2719;53.624;9.786;2023-08-12T00:32:52;3.23;;;1.50;;
5391;SDS011;2719;53.624;9.786;2023-08-12T00:35:18;12.00;;;1.60;;
5391;SDS011;2719;53.624;9.786;2023-08-12T00:37:45;2.50;;;1.30;;
5391;SDS011;2719;53.624;9.786;2023-08-12T00:40:12;8.50;;;1.60;;
5391;SDS011;2719;53.624;9.786;2023-08-12T00:42:39;2.90;;;1.67;;
5391;SDS011;2719;53.624;9.786;2023-08-12T00:45:07;7.17;;;1.40;;
5391;SDS011;2719;53.624;9.786;2023-08-12T00:47:37;2.07;;;1.17;;
5391;SDS011;2719;53.624;9.786;2023-08-12T00:50:06;2.80;;;1.37;;
5391;SDS011;2719;53.624;9.786;2023-08-12T00:52:34;2.50;;;1.77;;
5391;SDS011;2719;53.624;9.786;2023-08-12T00:55:02;6.37;;;1.90;;
5391;SDS011;2719;53.624;9.786;2023-08-12T00:57:28;2.03;;;1.27;;
5391;SDS011;2719;53.624;9.786;2023-08-12T00:59:55;5.40;;;1.73;;
5391;SDS011;2719;53.624;9.786;2023-08-12T01:02:22;5.33;;;1.97;;
5391;SDS011;2719;53.624;9.786;2023-08-12T01:04:49;5.00;;;1.47;;
5391;SDS011;2719;53.624;9.786;2023-08-12T01:07:17;4.37;;;1.87;;
5391;SDS011;2719;53.624;9.786;2023-08-12T01:09:44;4.20;;;1.90;;
5391;SDS011;2719;53.624;9.786;2023-08-12T01:12:12;5.40;;;1.97;;
5391;SDS011;2719;53.624;9.786;2023-08-12T01:14:43;4.70;;;2.00;;
5391;SDS011;2719;53.624;9.786;2023-08-12T01:17:14;5.83;;;2.07;;
5391;SDS011;2719;53.624;9.786;2023-08-12T01:19:41;5.00;;;2.10;;
5391;SDS011;2719;53.624;9.786;2023-08-12T01:22:10;2.00;;;1.50;;
5391;SDS011;2719;53.624;9.786;2023-08-12T01:24:40;5.83;;;1.80;;
5391;SDS011;2719;53.624;9.786;2023-08-12T01:27:08;4.77;;;2.33;;
5391;SDS011;2719;53.624;9.786;2023-08-12T01:29:36;3.67;;;1.80;;
5391;SDS011;2719;53.624;9.786;2023-08-12T01:32:07;6.97;;;1.57;;
5391;SDS011;2719;53.624;9.786;2023-08-12T01:34:39;8.47;;;2.27;;
5391;SDS011;2719;53.624;9.786;2023-08-12T01:37:11;6.83;;;1.93;;
5391;SDS011;2719;53.624;9.786;2023-08-12T01:39:41;2.10;;;1.47;;
5391;SDS011;2719;53.624;9.786;2023-08-12T01:42:09;4.47;;;1.50;;
5391;SDS011;2719;53.624;9.786;2023-08-12T01:44:36;1.80;;;1.37;;
5391;SDS011;2719;53.624;9.786;2023-08-12T01:47:02;7.07;;;1.60;;
5391;SDS011;2719;53.624;9.786;2023-08-12T01:49:29;3.57;;;1.60;;
5391;SDS011;2719;53.624;9.786;2023-08-12T01:51:56;2.30;;;1.50;;
5391;SDS011;2719;53.624;9.786;2023-08-12T01:54:23;2.83;;;1.43;;
5391;SDS011;2719;53.624;9.786;2023-08-12T01:56:51;5.17;;;2.00;;
5391;SDS011;2719;53.624;9.786;2023-08-12T01:59:17;5.73;;;1.83;;
5391;SDS011;2719;53.624;9.786;2023-08-12T02:01:44;5.60;;;1.60;;
5391;SDS011;2719;53.624;9.786;2023-08-12T02:04:11;4.00;;;2.10;;
5391;SDS011;2719;53.624;9.786;2023-08-12T02:06:37;8.03;;;2.13;;
5391;SDS011;2719;53.624;9.786;2023-08-12T02:09:04;3.60;;;1.30;;
5391;SDS011;2719;53.624;9.786;2023-08-12T02:11:31;13.17;;;2.20;;
5391;SDS011;2719;53.624;9.786;2023-08-12T02:13:59;2.63;;;1.57;;
5391;SDS011;2719;53.624;9.786;2023-08-12T02:16:26;2.10;;;1.37;;
5391;SDS011;2719;53.624;9.786;2023-08-12T02:18:52;3.40;;;1.50;;
5391;SDS011;2719;53.624;9.786;2023-08-12T02:21:19;4.40;;;1.70;;
5391;SDS011;2719;53.624;9.786;2023-08-12T02:23:45;8.13;;;2.27;;
5391;SDS011;2719;53.624;9.786;2023-08-12T02:26:12;7.70;;;2.03;;
5391;SDS011;2719;53.624;9.786;2023-08-12T02:28:39;4.30;;;2.03;;
5391;SDS011;2719;53.624;9.786;2023-08-12T02:31:07;10.13;;;2.50;;
5391;SDS011;2719;53.624;9.786;2023-08-12T02:33:33;5.13;;;1.77;;
5391;SDS011;2719;53.624;9.786;2023-08-12T02:36:00;5.33;;;1.67;;
5391;SDS011;2719;53.624;9.786;2023-08-12T02:38:27;7.43;;;1.77;;
5391;SDS011;2719;53.624;9.786;2023-08-12T02:40:53;7.63;;;1.97;;
5391;SDS011;2719;53.624;9.786;2023-08-12T02:43:20;7.70;;;1.30;;
5391;SDS011;2719;53.624;9.786;2023-08-12T02:45:47;2.70;;;1.50;;
5391;SDS011;2719;53.624;9.786;2023-08-12T02:48:15;4.50;;;2.00;;
5391;SDS011;2719;53.624;9.786;2023-08-12T02:50:41;5.10;;;2.30;;
5391;SDS011;2719;53.624;9.786;2023-08-12T02:53:08;4.50;;;1.73;;
5391;SDS011;2719;53.624;9.786;2023-08-12T02:55:35;3.93;;;1.80;;
5391;SDS011;2719;53.624;9.786;2023-08-12T02:58:02;4.07;;;1.90;;
5391;SDS011;2719;53.624;9.786;2023-08-12T03:00:30;3.23;;;2.17;;
5391;SDS011;2719;53.624;9.786;2023-08-12T03:02:56;3.70;;;2.17;;
5391;SDS011;2719;53.624;9.786;2023-08-12T03:05:24;7.13;;;1.80;;
5391;SDS011;2719;53.624;9.786;2023-08-12T03:07:51;5.93;;;1.70;;
5391;SDS011;2719;53.624;9.786;2023-08-12T03:10:18;7.80;;;2.00;;
5391;SDS011;2719;53.624;9.786;2023-08-12T03:12:45;9.80;;;1.70;;
5391;SDS011;2719;53.624;9.786;2023-08-12T03:15:12;7.70;;;2.40;;
5391;SDS011;2719;53.624;9.786;2023-08-12T03:17:38;5.20;;;1.90;;
5391;SDS011;2719;53.624;9.786;2023-08-12T03:20:07;4.53;;;2.10;;
5391;SDS011;2719;53.624;9.786;2023-08-12T03:22:35;4.30;;;2.13;;
5391;SDS011;2719;53.624;9.786;2023-08-12T03:25:03;2.83;;;2.23;;
5391;SDS011;2719;53.624;9.786;2023-08-12T03:27:30;2.40;;;1.53;;
5391;SDS011;2719;53.624;9.786;2023-08-12T03:29:57;5.07;;;2.50;;
5391;SDS011;2719;53.624;9.786;2023-08-12T03:32:24;7.37;;;1.80;;
5391;SDS011;2719;53.624;9.786;2023-08-12T03:34:51;8.03;;;2.00;;
5391;SDS011;2719;53.624;9.786;2023-08-12T03:37:18;6.60;;;1.93;;
5391;SDS011;2719;53.624;9.786;2023-08-12T03:39:46;10.13;;;2.00;;
5391;SDS011;2719;53.624;9.786;2023-08-12T03:42:12;2.87;;;2.03;;
5391;SDS011;2719;53.624;9.786;2023-08-12T03:44:40;3.33;;;1.80;;
5391;SDS011;2719;53.624;9.786;2023-08-12T03:47:07;6.13;;;1.77;;
5391;SDS011;2719;53.624;9.786;2023-08-12T03:49:33;6.47;;;1.80;;
5391;SDS011;2719;53.624;9.786;2023-08-12T03:52:00;4.60;;;2.00;;
5391;SDS011;2719;53.624;9.786;2023-08-12T03:54:27;5.93;;;2.27;;
5391;SDS011;2719;53.624;9.786;2023-08-12T03:56:55;3.83;;;1.83;;
5391;SDS011;2719;53.624;9.786;2023-08-12T03:59:21;3.53;;;1.57;;
5391;SDS011;2719;53.624;9.786;2023-08-12T04:01:48;6.07;;;2.37;;
5391;SDS011;2719;53.624;9.786;2023-08-12T04:04:15;3.90;;;1.60;;
5391;SDS011;2719;53.624;9.786;2023-08-12T04:06:42;2.30;;;1.70;;
5391;SDS011;2719;53.624;9.786;2023-08-12T04:09:08;5.93;;;2.03;;
5391;SDS011;2719;53.624;9.786;2023-08-12T04:11:35;3.53;;;1.77;;
5391;SDS011;2719;53.624;9.786;2023-08-12T04:14:03;6.00;;;1.60;;
5391;SDS011;2719;53.624;9.786;2023-08-12T04:16:30;5.57;;;2.07;;
5391;SDS011;2719;53.624;9.786;2023-08-12T04:18:57;7.47;;;2.30;;
5391;SDS011;2719;53.624;9.786;2023-08-12T04:21:23;3.37;;;1.60;;
5391;SDS011;2719;53.624;9.786;2023-08-12T04:23:50;10.53;;;2.63;;
5391;SDS011;2719;53.624;9.786;2023-08-12T04:26:17;2.90;;;2.10;;
5391;SDS011;2719;53.624;9.786;2023-08-12T04:28:43;9.23;;;1.80;;
5391;SDS011;2719;53.624;9.786;2023-08-12T04:31:11;5.00;;;2.37;;
5391;SDS011;2719;53.624;9.786;2023-08-12T04:33:38;3.00;;;1.53;;
5391;SDS011;2719;53.624;9.786;2023-08-12T04:36:05;4.07;;;2.20;;
5391;SDS011;2719;53.624;9.786;2023-08-12T04:38:32;3.80;;;2.13;;
5391;SDS011;2719;53.624;9.786;2023-08-12T04:41:00;4.57;;;2.40;;
5391;SDS011;2719;53.624;9.786;2023-08-12T04:43:27;9.80;;;2.27;;
5391;SDS011;2719;53.624;9.786;2023-08-12T04:45:54;8.60;;;2.37;;
5391;SDS011;2719;53.624;9.786;2023-08-12T04:48:22;5.97;;;2.40;;
5391;SDS011;2719;53.624;9.786;2023-08-12T04:50:48;3.93;;;2.00;;
5391;SDS011;2719;53.624;9.786;2023-08-12T04:53:15;7.33;;;2.33;;
5391;SDS011;2719;53.624;9.786;2023-08-12T04:55:42;4.90;;;2.57;;
5391;SDS011;2719;53.624;9.786;2023-08-12T04:58:08;22.13;;;3.23;;
5391;SDS011;2719;53.624;9.786;2023-08-12T05:00:35;5.67;;;2.07;;
5391;SDS011;2719;53.624;9.786;2023-08-12T05:03:02;9.63;;;2.70;;
5391;SDS011;2719;53.624;9.786;2023-08-12T05:05:30;4.50;;;2.03;;
5391;SDS011;2719;53.624;9.786;2023-08-12T05:07:57;5.33;;;2.43;;
5391;SDS011;2719;53.624;9.786;2023-08-12T05:10:23;6.47;;;2.20;;
5391;SDS011;2719;53.624;9.786;2023-08-12T05:12:50;8.30;;;2.27;;
5391;SDS011;2719;53.624;9.786;2023-08-12T05:15:19;2.27;;;1.93;;
5391;SDS011;2719;53.624;9.786;2023-08-12T05:17:45;7.33;;;2.67;;
5391;SDS011;2719;53.624;9.786;2023-08-12T05:20:12;3.57;;;2.10;;
5391;SDS011;2719;53.624;9.786;2023-08-12T05:22:40;6.90;;;2.90;;
5391;SDS011;2719;53.624;9.786;2023-08-12T05:25:07;7.20;;;3.50;;
5391;SDS011;2719;53.624;9.786;2023-08-12T05:27:34;8.23;;;2.90;;
5391;SDS011;2719;53.624;9.786;2023-08-12T05:30:00;6.30;;;3.60;;
5391;SDS011;2719;53.624;9.786;2023-08-12T05:32:27;6.97;;;3.30;;
5391;SDS011;2719;53.624;9.786;2023-08-12T05:34:54;10.83;;;3.70;;
5391;SDS011;2719;53.624;9.786;2023-08-12T05:37:21;8.50;;;3.53;;
5391;SDS011;2719;53.624;9.786;2023-08-12T05:39:49;8.33;;;3.60;;
5391;SDS011;2719;53.624;9.786;2023-08-12T05:42:16;7.00;;;2.60;;
5391;SDS011;2719;53.624;9.786;2023-08-12T05:44:43;5.93;;;3.50;;
5391;SDS011;2719;53.624;9.786;2023-08-12T05:47:10;3.83;;;2.77;;
5391;SDS011;2719;53.624;9.786;2023-08-12T05:49:36;6.53;;;3.70;;
5391;SDS011;2719;53.624;9.786;2023-08-12T05:52:04;5.20;;;3.17;;
5391;SDS011;2719;53.624;9.786;2023-08-12T05:54:30;5.23;;;2.77;;
5391;SDS011;2719;53.624;9.786;2023-08-12T05:56:58;6.43;;;3.33;;
5391;SDS011;2719;53.624;9.786;2023-08-12T05:59:25;11.97;;;3.33;;
5391;SDS011;2719;53.624;9.786;2023-08-12T06:01:53;9.33;;;3.40;;
5391;SDS011;2719;53.624;9.786;2023-08-12T06:04:20;14.93;;;3.07;;
5391;SDS011;2719;53.624;9.786;2023-08-12T06:06:46;8.43;;;3.80;;
5391;SDS011;2719;53.624;9.786;2023-08-12T06:09:13;10.23;;;4.10;;
5391;SDS011;2719;53.624;9.786;2023-08-12T06:11:40;6.60;;;5.10;;
5391;SDS011;2719;53.624;9.786;2023-08-12T06:14:08;8.80;;;5.23;;
5391;SDS011;2719;53.624;9.786;2023-08-12T06:16:34;8.63;;;5.27;;
5391;SDS011;2719;53.624;9.786;2023-08-12T06:19:01;20.03;;;5.20;;
5391;SDS011;2719;53.624;9.786;2023-08-12T06:21:28;11.53;;;5.83;;
5391;SDS011;2719;53.624;9.786;2023-08-12T06:23:55;8.63;;;5.20;;
5391;SDS011;2719;53.624;9.786;2023-08-12T06:26:22;8.60;;;5.33;;
5391;SDS011;2719;53.624;9.786;2023-08-12T06:28:48;13.67;;;6.60;;
5391;SDS011;2719;53.624;9.786;2023-08-12T06:31:17;9.27;;;6.37;;
5391;SDS011;2719;53.624;9.786;2023-08-12T06:33:43;9.77;;;5.27;;
5391;SDS011;2719;53.624;9.786;2023-08-12T06:36:10;11.57;;;6.77;;
5391;SDS011;2719;53.624;9.786;2023-08-12T06:38:37;9.30;;;5.93;;
5391;SDS011;2719;53.624;9.786;2023-08-12T06:41:03;8.50;;;5.33;;
5391;SDS011;2719;53.624;9.786;2023-08-12T06:43:30;10.50;;;6.00;;
5391;SDS011;2719;53.624;9.786;2023-08-12T06:45:57;7.93;;;5.60;;
5391;SDS011;2719;53.624;9.786;2023-08-12T06:48:25;12.27;;;7.10;;
5391;SDS011;2719;53.624;9.786;2023-08-12T06:50:55;9.80;;;6.57;;
5391;SDS011;2719;53.624;9.786;2023-08-12T06:53:21;9.47;;;5.97;;
5391;SDS011;2719;53.624;9.786;2023-08-12T06:55:48;7.97;;;5.97;;
5391;SDS011;2719;53.624;9.786;2023-08-12T06:58:15;9.93;;;6.90;;
5391;SDS011;2719;53.624;9.786;2023-08-12T07:00:42;10.03;;;6.07;;
5391;SDS011;2719;53.624;9.786;2023-08-12T07:03:09;17.23;;;7.87;;
5391;SDS011;2719;53.624;9.786;2023-08-12T07:05:37;10.33;;;6.40;;
5391;SDS011;2719;53.624;9.786;2023-08-12T07:08:04;21.50;;;6.97;;
5391;SDS011;2719;53.624;9.786;2023-08-12T07:10:31;18.67;;;6.57;;
5391;SDS011;2719;53.624;9.786;2023-08-12T07:12:58;9.30;;;6.60;;
5391;SDS011;2719;53.624;9.786;2023-08-12T07:15:25;13.10;;;6.90;;
5391;SDS011;2719;53.624;9.786;2023-08-12T07:17:52;16.20;;;6.50;;
5391;SDS011;2719;53.624;9.786;2023-08-12T07:20:18;10.43;;;5.43;;
5391;SDS011;2719;53.624;9.786;2023-08-12T07:22:47;8.20;;;6.33;;
5391;SDS011;2719;53.624;9.786;2023-08-12T07:25:13;7.40;;;5.60;;
5391;SDS011;2719;53.624;9.786;2023-08-12T07:27:40;11.63;;;7.20;;
5391;SDS011;2719;53.624;9.786;2023-08-12T07:30:07;11.13;;;6.13;;
5391;SDS011;2719;53.624;9.786;2023-08-12T07:32:35;10.47;;;6.90;;
5391;SDS011;2719;53.624;9.786;2023-08-12T07:35:04;10.87;;;6.70;;
5391;SDS011;2719;53.624;9.786;2023-08-12T07:37:32;9.90;;;6.00;;
5391;SDS011;2719;53.624;9.786;2023-08-12T07:40:00;11.27;;;5.70;;
5391;SDS011;2719;53.624;9.786;2023-08-12T07:42:28;13.20;;;7.10;;
5391;SDS011;2719;53.624;9.786;2023-08-12T07:44:55;10.70;;;7.10;;
5391;SDS011;2719;53.624;9.786;2023-08-12T07:47:21;10.10;;;7.03;;
5391;SDS011;2719;53.624;9.786;2023-08-12T07:49:48;11.63;;;6.47;;
5391;SDS011;2719;53.624;9.786;2023-08-12T07:52:16;11.40;;;6.60;;
5391;SDS011;2719;53.624;9.786;2023-08-12T07:54:42;10.30;;;6.00;;
5391;SDS011;2719;53.624;9.786;2023-08-12T07:57:11;19.63;;;5.67;;
5391;SDS011;2719;53.624;9.786;2023-08-12T07:59:38;13.90;;;5.93;;
5391;SDS011;2719;53.624;9.786;2023-08-12T08:02:05;7.67;;;6.00;;
5391;SDS011;2719;53.624;9.786;2023-08-12T08:04:32;11.03;;;6.20;;
5391;SDS011;2719;53.624;9.786;2023-08-12T08:06:59;10.40;;;5.40;;
5391;SDS011;2719;53.624;9.786;2023-08-12T08:09:25;9.30;;;5.73;;
5391;SDS011;2719;53.624;9.786;2023-08-12T08:11:52;15.23;;;6.03;;
5391;SDS011;2719;53.624;9.786;2023-08-12T08:14:20;13.87;;;6.33;;
5391;SDS011;2719;53.624;9.786;2023-08-12T08:16:47;11.80;;;4.90;;
5391;SDS011;2719;53.624;9.786;2023-08-12T08:19:13;9.30;;;5.33;;
5391;SDS011;2719;53.624;9.786;2023-08-12T08:21:40;6.67;;;5.20;;
5391;SDS011;2719;53.624;9.786;2023-08-12T08:24:07;8.67;;;5.20;;
5391;SDS011;2719;53.624;9.786;2023-08-12T08:26:36;12.20;;;4.67;;
5391;SDS011;2719;53.624;9.786;2023-08-12T08:29:03;8.33;;;4.33;;
5391;SDS011;2719;53.624;9.786;2023-08-12T08:31:32;7.30;;;4.40;;
5391;SDS011;2719;53.624;9.786;2023-08-12T08:33:58;6.53;;;3.80;;
5391;SDS011;2719;53.624;9.786;2023-08-12T08:36:25;5.27;;;3.73;;
5391;SDS011;2719;53.624;9.786;2023-08-12T08:38:52;6.27;;;3.43;;
5391;SDS011;2719;53.624;9.786;2023-08-12T08:41:19;8.43;;;4.77;;
5391;SDS011;2719;53.624;9.786;2023-08-12T08:43:46;6.57;;;4.90;;
5391;SDS011;2719;53.624;9.786;2023-08-12T08:46:14;6.77;;;3.83;;
5391;SDS011;2719;53.624;9.786;2023-08-12T08:48:43;7.80;;;4.03;;
5391;SDS011;2719;53.624;9.786;2023-08-12T08:51:10;6.13;;;3.83;;
5391;SDS011;2719;53.624;9.786;2023-08-12T08:53:37;7.20;;;5.00;;
5391;SDS011;2719;53.624;9.786;2023-08-12T08:56:05;6.93;;;4.10;;
5391;SDS011;2719;53.624;9.786;2023-08-12T08:58:36;8.53;;;4.23;;
5391;SDS011;2719;53.624;9.786;2023-08-12T09:01:04;8.93;;;4.13;;
5391;SDS011;2719;53.624;9.786;2023-08-12T09:03:32;6.77;;;4.07;;
5391;SDS011;2719;53.624;9.786;2023-08-12T09:06:01;4.87;;;3.20;;
5391;SDS011;2719;53.624;9.786;2023-08-12T09:08:28;5.77;;;2.90;;
5391;SDS011;2719;53.624;9.786;2023-08-12T09:10:57;5.67;;;3.10;;
5391;SDS011;2719;53.624;9.786;2023-08-12T09:13:26;5.57;;;3.40;;
5391;SDS011;2719;53.624;9.786;2023-08-12T09:15:53;5.70;;;3.80;;
5391;SDS011;2719;53.624;9.786;2023-08-12T09:18:20;11.60;;;3.43;;
5391;SDS011;2719;53.624;9.786;2023-08-12T09:20:49;4.60;;;3.00;;
5391;SDS011;2719;53.624;9.786;2023-08-12T09:23:17;4.43;;;1.97;;
5391;SDS011;2719;53.624;9.786;2023-08-12T09:25:43;2.83;;;1.50;;
5391;SDS011;2719;53.624;9.786;2023-08-12T09:28:11;4.70;;;2.20;;
5391;SDS011;2719;53.624;9.786;2023-08-12T09:30:38;2.57;;;1.50;;
5391;SDS011;2719;53.624;9.786;2023-08-12T09:33:06;2.60;;;1.73;;
5391;SDS011;2719;53.624;9.786;2023-08-12T09:35:36;5.30;;;2.47;;
5391;SDS011;2719;53.624;9.786;2023-08-12T09:38:04;5.70;;;1.90;;
5391;SDS011;2719;53.624;9.786;2023-08-12T09:40:34;2.70;;;1.83;;
5391;SDS011;2719;53.624;9.786;2023-08-12T09:43:01;6.30;;;2.93;;
5391;SDS011;2719;53.624;9.786;2023-08-12T09:45:29;4.80;;;2.47;;
5391;SDS011;2719;53.624;9.786;2023-08-12T09:47:56;5.67;;;2.60;;
5391;SDS011;2719;53.624;9.786;2023-08-12T09:50:23;3.70;;;2.53;;
5391;SDS011;2719;53.624;9.786;2023-08-12T09:52:50;4.87;;;1.97;;
5391;SDS011;2719;53.624;9.786;2023-08-12T09:55:19;4.30;;;2.17;;
5391;SDS011;2719;53.624;9.786;2023-08-12T09:57:49;6.10;;;2.33;;
5391;SDS011;2719;53.624;9.786;2023-08-12T10:00:18;4.47;;;2.37;;
5391;SDS011;2719;53.624;9.786;2023-08-12T10:02:46;7.03;;;2.30;;
5391;SDS011;2719;53.624;9.786;2023-08-12T10:05:15;7.97;;;3.30;;
5391;SDS011;2719;53.624;9.786;2023-08-12T10:07:45;4.90;;;2.13;;
5391;SDS011;2719;53.624;9.786;2023-08-12T10:10:13;4.80;;;3.00;;
5391;SDS011;2719;53.624;9.786;2023-08-12T10:12:40;4.57;;;3.10;;
5391;SDS011;2719;53.624;9.786;2023-08-12T10:15:09;5.07;;;2.97;;
5391;SDS011;2719;53.624;9.786;2023-08-12T10:17:36;7.23;;;3.37;;
5391;SDS011;2719;53.624;9.786;2023-08-12T10:20:05;4.20;;;2.70;;
5391;SDS011;2719;53.624;9.786;2023-08-12T10:22:34;4.27;;;2.50;;
5391;SDS011;2719;53.624;9.786;2023-08-12T10:25:02;17.37;;;2.90;;
5391;SDS011;2719;53.624;9.786;2023-08-12T10:27:30;3.73;;;1.90;;
5391;SDS011;2719;53.624;9.786;2023-08-12T10:29:57;5.27;;;2.67;;
5391;SDS011;2719;53.624;9.786;2023-08-12T10:32:25;9.53;;;1.90;;
5391;SDS011;2719;53.624;9.786;2023-08-12T10:34:55;5.03;;;2.77;;
5391;SDS011;2719;53.624;9.786;2023-08-12T10:37:22;4.93;;;2.10;;
5391;SDS011;2719;53.624;9.786;2023-08-12T10:39:50;7.77;;;2.57;;
5391;SDS011;2719;53.624;9.786;2023-08-12T10:45:07;8.23;;;2.60;;
5391;SDS011;2719;53.624;9.786;2023-08-12T10:47:39;7.37;;;3.20;;
5391;SDS011;2719;53.624;9.786;2023-08-12T10:50:16;7.40;;;2.73;;
5391;SDS011;2719;53.624;9.786;2023-08-12T10:52:44;5.80;;;3.00;;
5391;SDS011;2719;53.624;9.786;2023-08-12T10:55:15;4.80;;;2.33;;
5391;SDS011;2719;53.624;9.786;2023-08-12T10:57:43;7.47;;;3.53;;
5391;SDS011;2719;53.624;9.786;2023-08-12T11:00:10;4.50;;;2.93;;
5391;SDS011;2719;53.624;9.786;2023-08-12T11:02:40;10.00;;;3.87;;
5391;SDS011;2719;53.624;9.786;2023-08-12T11:05:11;5.37;;;3.10;;
5391;SDS011;2719;53.624;9.786;2023-08-12T11:07:40;11.10;;;3.90;;
5391;SDS011;2719;53.624;9.786;2023-08-12T11:10:11;7.00;;;3.80;;
5391;SDS011;2719;53.624;9.786;2023-08-12T11:12:40;7.23;;;3.90;;
5391;SDS011;2719;53.624;9.786;2023-08-12T11:15:08;8.60;;;3.37;;
5391;SDS011;2719;53.624;9.786;2023-08-12T11:17:36;10.30;;;3.63;;
5391;SDS011;2719;53.624;9.786;2023-08-12T11:20:07;6.37;;;3.30;;
5391;SDS011;2719;53.624;9.786;2023-08-12T11:22:36;3.83;;;3.10;;
5391;SDS011;2719;53.624;9.786;2023-08-12T11:25:04;9.53;;;3.80;;
5391;SDS011;2719;53.624;9.786;2023-08-12T11:27:37;7.03;;;3.30;;
5391;SDS011;2719;53.624;9.786;2023-08-12T11:30:06;6.20;;;3.97;;
5391;SDS011;2719;53.624;9.786;2023-08-12T11:32:33;9.43;;;3.80;;
5391;SDS011;2719;53.624;9.786;2023-08-12T11:35:00;7.27;;;4.43;;
5391;SDS011;2719;53.624;9.786;2023-08-12T11:37:30;8.47;;;3.80;;
5391;SDS011;2719;53.624;9.786;2023-08-12T11:39:57;4.50;;;2.90;;
5391;SDS011;2719;53.624;9.786;2023-08-12T11:42:23;9.50;;;3.50;;
5391;SDS011;2719;53.624;9.786;2023-08-12T11:44:50;10.80;;;4.50;;
5391;SDS011;2719;53.624;9.786;2023-08-12T11:47:17;7.10;;;3.70;;
5391;SDS011;2719;53.624;9.786;2023-08-12T11:49:43;4.50;;;2.80;;
5391;SDS011;2719;53.624;9.786;2023-08-12T11:52:10;6.07;;;4.30;;
5391;SDS011;2719;53.624;9.786;2023-08-12T11:54:39;5.97;;;3.40;;
5391;SDS011;2719;53.624;9.786;2023-08-12T11:57:06;7.37;;;4.37;;
5391;SDS011;2719;53.624;9.786;2023-08-12T11:59:32;8.10;;;4.53;;
5391;SDS011;2719;53.624;9.786;2023-08-12T12:02:01;7.77;;;4.00;;
5391;SDS011;2719;53.624;9.786;2023-08-12T12:04:30;5.50;;;3.80;;
5391;SDS011;2719;53.624;9.786;2023-08-12T12:06:57;7.50;;;4.10;;
5391;SDS011;2719;53.624;9.786;2023-08-12T12:09:25;8.07;;;3.43;;
5391;SDS011;2719;53.624;9.786;2023-08-12T12:11:56;19.60;;;4.47;;
5391;SDS011;2719;53.624;9.786;2023-08-12T12:14:24;7.60;;;4.40;;
5391;SDS011;2719;53.624;9.786;2023-08-12T12:16:51;7.90;;;4.30;;
5391;SDS011;2719;53.624;9.786;2023-08-12T12:19:18;7.60;;;4.30;;
5391;SDS011;2719;53.624;9.786;2023-08-12T12:21:46;6.83;;;3.27;;
5391;SDS011;2719;53.624;9.786;2023-08-12T12:24:14;7.10;;;3.93;;
5391;SDS011;2719;53.624;9.786;2023-08-12T12:26:41;3.70;;;3.27;;
5391;SDS011;2719;53.624;9.786;2023-08-12T12:29:10;14.47;;;3.87;;
5391;SDS011;2719;53.624;9.786;2023-08-12T12:31:37;4.47;;;3.20;;
5391;SDS011;2719;53.624;9.786;2023-08-12T12:34:04;6.17;;;3.40;;
5391;SDS011;2719;53.624;9.786;2023-08-12T12:36:32;5.40;;;2.93;;
5391;SDS011;2719;53.624;9.786;2023-08-12T12:39:01;6.30;;;4.00;;
5391;SDS011;2719;53.624;9.786;2023-08-12T12:41:28;4.90;;;3.23;;
5391;SDS011;2719;53.624;9.786;2023-08-12T12:43:54;5.30;;;3.43;;
5391;SDS011;2719;53.624;9.786;2023-08-12T12:46:22;3.83;;;2.80;;
5391;SDS011;2719;53.624;9.786;2023-08-12T12:48:49;6.67;;;3.13;;
5391;SDS011;2719;53.624;9.786;2023-08-12T12:51:16;7.87;;;3.67;;
5391;SDS011;2719;53.624;9.786;2023-08-12T12:53:43;6.03;;;3.80;;
5391;SDS011;2719;53.624;9.786;2023-08-12T12:56:09;5.87;;;3.00;;
5391;SDS011;2719;53.624;9.786;2023-08-12T12:58:36;5.00;;;3.30;;
5391;SDS011;2719;53.624;9.786;2023-08-12T13:01:03;5.60;;;2.97;;
5391;SDS011;2719;53.624;9.786;2023-08-12T13:03:32;5.93;;;2.83;;
5391;SDS011;2719;53.624;9.786;2023-08-12T13:05:59;6.73;;;3.80;;
5391;SDS011;2719;53.624;9.786;2023-08-12T13:08:27;3.57;;;2.40;;
5391;SDS011;2719;53.624;9.786;2023-08-12T13:10:54;9.40;;;3.20;;
5391;SDS011;2719;53.624;9.786;2023-08-12T13:13:21;8.23;;;4.10;;
5391;SDS011;2719;53.624;9.786;2023-08-12T13:15:48;6.70;;;3.40;;
5391;SDS011;2719;53.624;9.786;2023-08-12T13:18:15;8.50;;;3.60;;
5391;SDS011;2719;53.624;9.786;2023-08-12T13:20:43;7.03;;;4.13;;
5391;SDS011;2719;53.624;9.786;2023-08-12T13:23:09;6.83;;;4.27;;
5391;SDS011;2719;53.624;9.786;2023-08-12T13:25:37;4.13;;;3.30;;
5391;SDS011;2719;53.624;9.786;2023-08-12T13:28:03;7.63;;;4.17;;
5391;SDS011;2719;53.624;9.786;2023-08-12T13:30:31;6.90;;;3.60;;
5391;SDS011;2719;53.624;9.786;2023-08-12T13:32:57;4.53;;;3.10;;
5391;SDS011;2719;53.624;9.786;2023-08-12T13:35:24;6.97;;;4.00;;
5391;SDS011;2719;53.624;9.786;2023-08-12T13:37:52;4.50;;;3.50;;
5391;SDS011;2719;53.624;9.786;2023-08-12T13:40:19;6.50;;;4.10;;
5391;SDS011;2719;53.624;9.786;2023-08-12T13:42:46;4.03;;;3.40;;
5391;SDS011;2719;53.624;9.786;2023-08-12T13:45:13;5.70;;;4.17;;
5391;SDS011;2719;53.624;9.786;2023-08-12T13:47:39;8.33;;;4.67;;
5391;SDS011;2719;53.624;9.786;2023-08-12T13:50:06;4.90;;;3.40;;
5391;SDS011;2719;53.624;9.786;2023-08-12T13:52:34;6.57;;;3.30;;
5391;SDS011;2719;53.624;9.786;2023-08-12T13:55:02;6.90;;;3.57;;
5391;SDS011;2719;53.624;9.786;2023-08-12T13:57:29;7.10;;;4.07;;
5391;SDS011;2719;53.624;9.786;2023-08-12T13:59:56;6.73;;;3.03;;
5391;SDS011;2719;53.624;9.786;2023-08-12T14:02:23;4.77;;;3.20;;
5391;SDS011;2719;53.624;9.786;2023-08-12T14:04:50;5.10;;;3.47;;
5391;SDS011;2719;53.624;9.786;2023-08-12T14:07:16;6.17;;;3.63;;
5391;SDS011;2719;53.624;9.786;2023-08-12T14:09:45;6.67;;;4.20;;
5391;SDS011;2719;53.624;9.786;2023-08-12T14:12:13;6.37;;;3.90;;
5391;SDS011;2719;53.624;9.786;2023-08-12T14:14:40;4.47;;;3.53;;
5391;SDS011;2719;53.624;9.786;2023-08-12T14:17:06;8.03;;;4.43;;
5391;SDS011;2719;53.624;9.786;2023-08-12T14:19:33;6.00;;;4.13;;
5391;SDS011;2719;53.624;9.786;2023-08-12T14:22:00;8.83;;;4.17;;
5391;SDS011;2719;53.624;9.786;2023-08-12T14:24:26;8.07;;;4.83;;
5391;SDS011;2719;53.624;9.786;2023-08-12T14:26:53;7.13;;;4.60;;
5391;SDS011;2719;53.624;9.786;2023-08-12T14:29:21;8.30;;;4.67;;
5391;SDS011;2719;53.624;9.786;2023-08-12T14:31:48;7.53;;;5.23;;
5391;SDS011;2719;53.624;9.786;2023-08-12T14:34:14;7.77;;;5.07;;
5391;SDS011;2719;53.624;9.786;2023-08-12T14:36:41;8.87;;;4.97;;
5391;SDS011;2719;53.624;9.786;2023-08-12T14:39:07;12.67;;;5.97;;
5391;SDS011;2719;53.624;9.786;2023-08-12T14:41:34;10.47;;;5.83;;
5391;SDS011;2719;53.624;9.786;2023-08-12T14:44:01;12.53;;;6.27;;
5391;SDS011;2719;53.624;9.786;2023-08-12T14:46:29;9.77;;;5.27;;
5391;SDS011;2719;53.624;9.786;2023-08-12T14:48:56;7.70;;;5.50;;
5391;SDS011;2719;53.624;9.786;2023-08-12T14:51:22;14.27;;;7.00;;
5391;SDS011;2719;53.624;9.786;2023-08-12T14:53:49;10.80;;;5.93;;
5391;SDS011;2719;53.624;9.786;2023-08-12T14:56:16;9.70;;;5.77;;
5391;SDS011;2719;53.624;9.786;2023-08-12T14:58:43;9.17;;;6.70;;
5391;SDS011;2719;53.624;9.786;2023-08-12T15:01:10;10.63;;;7.20;;
5391;SDS011;2719;53.624;9.786;2023-08-12T15:03:39;11.37;;;7.63;;
5391;SDS011;2719;53.624;9.786;2023-08-12T15:06:06;12.30;;;8.13;;
5391;SDS011;2719;53.624;9.786;2023-08-12T15:08:32;13.03;;;8.23;;
5391;SDS011;2719;53.624;9.786;2023-08-12T15:10:59;13.27;;;9.17;;
5391;SDS011;2719;53.624;9.786;2023-08-12T15:13:26;10.20;;;8.17;;
5391;SDS011;2719;53.624;9.786;2023-08-12T15:15:52;11.57;;;8.60;;